sensor_id;sensor_type;location;lat;lon;timestamp;P1;durP1;ratioP1;P2;durP2;ratioP2
54557;SDS011;40452;50.080;20.040;2024-02-21T04:43:21;5.15;;;2.50;;
54557;SDS011;40452;50.080;20.040;2024-02-21T04:45:47;7.03;;;3.10;;
54557;SDS011;40452;50.080;20.040;2024-02-21T04:48:13;3.85;;;2.60;;
54557;SDS011;40452;50.080;20.040;2024-02-21T04:50:39;5.00;;;2.42;;
54557;SDS011;40452;50.080;20.040;2024-02-21T04:53:06;4.22;;;2.20;;
54557;SDS011;40452;50.080;20.040;2024-02-21T04:55:32;6.43;;;2.40;;
54557;SDS011;40452;50.080;20.040;2024-02-21T04:57:58;8.73;;;2.65;;
54557;SDS011;40452;50.080;20.040;2024-02-21T05:00:27;5.55;;;2.72;;
54557;SDS011;40452;50.080;20.040;2024-02-21T05:02:53;5.30;;;2.13;;
54557;SDS011;40452;50.080;20.040;2024-02-21T05:05:19;6.97;;;2.65;;
54557;SDS011;40452;50.080;20.040;2024-02-21T05:07:45;6.43;;;2.45;;
54557;SDS011;40452;50.080;20.040;2024-02-21T05:10:11;5.63;;;2.30;;
54557;SDS011;40452;50.080;20.040;2024-02-21T05:12:37;7.20;;;2.42;;
54557;SDS011;40452;50.080;20.040;2024-02-21T05:15:03;4.63;;;2.30;;
54557;SDS011;40452;50.080;20.040;2024-02-21T05:17:30;9.77;;;2.30;;
54557;SDS011;40452;50.080;20.040;2024-02-21T05:19:55;5.43;;;2.33;;
54557;SDS011;40452;50.080;20.040;2024-02-21T05:22:21;4.05;;;2.20;;
54557;SDS011;40452;50.080;20.040;2024-02-21T05:24:47;9.05;;;2.80;;
54557;SDS011;40452;50.080;20.040;2024-02-21T05:27:13;6.95;;;2.42;;
54557;SDS011;40452;50.080;20.040;2024-02-21T05:29:39;6.03;;;2.33;;
54557;SDS011;40452;50.080;20.040;2024-02-21T05:32:05;5.53;;;2.30;;
54557;SDS011;40452;50.080;20.040;2024-02-21T05:34:32;5.03;;;2.20;;
54557;SDS011;40452;50.080;20.040;2024-02-21T05:36:58;5.13;;;2.35;;
54557;SDS011;40452;50.080;20.040;2024-02-21T05:39:25;3.58;;;1.80;;
54557;SDS011;40452;50.080;20.040;2024-02-21T05:41:51;7.85;;;2.65;;
54557;SDS011;40452;50.080;20.040;2024-02-21T05:44:18;5.03;;;2.45;;
54557;SDS011;40452;50.080;20.040;2024-02-21T05:46:44;4.60;;;2.33;;
54557;SDS011;40452;50.080;20.040;2024-02-21T05:49:10;4.03;;;2.13;;
54557;SDS011;40452;50.080;20.040;2024-02-21T05:51:36;4.72;;;2.30;;
54557;SDS011;40452;50.080;20.040;2024-02-21T05:54:02;5.75;;;2.55;;
54557;SDS011;40452;50.080;20.040;2024-02-21T05:56:30;8.68;;;3.10;;
54557;SDS011;40452;50.080;20.040;2024-02-21T05:58:56;8.20;;;2.92;;
54557;SDS011;40452;50.080;20.040;2024-02-21T06:01:22;6.22;;;2.50;;
54557;SDS011;40452;50.080;20.040;2024-02-21T06:03:49;6.00;;;2.35;;
54557;SDS011;40452;50.080;20.040;2024-02-21T06:06:15;7.65;;;2.70;;
54557;SDS011;40452;50.080;20.040;2024-02-21T06:08:41;6.93;;;3.20;;
54557;SDS011;40452;50.080;20.040;2024-02-21T06:11:07;7.35;;;3.08;;
54557;SDS011;40452;50.080;20.040;2024-02-21T06:13:33;6.63;;;2.50;;
54557;SDS011;40452;50.080;20.040;2024-02-21T06:15:59;6.43;;;2.88;;
54557;SDS011;40452;50.080;20.040;2024-02-21T06:18:25;8.00;;;2.65;;
54557;SDS011;40452;50.080;20.040;2024-02-21T06:20:51;5.70;;;2.60;;
54557;SDS011;40452;50.080;20.040;2024-02-21T06:23:17;6.65;;;2.63;;
54557;SDS011;40452;50.080;20.040;2024-02-21T06:25:43;8.50;;;2.83;;
54557;SDS011;40452;50.080;20.040;2024-02-21T06:28:09;12.10;;;3.17;;
54557;SDS011;40452;50.080;20.040;2024-02-21T06:30:35;6.20;;;2.35;;
54557;SDS011;40452;50.080;20.040;2024-02-21T06:33:02;7.05;;;2.63;;
54557;SDS011;40452;50.080;20.040;2024-02-21T06:35:28;5.47;;;2.20;;
54557;SDS011;40452;50.080;20.040;2024-02-21T06:37:54;9.05;;;2.38;;
54557;SDS011;40452;50.080;20.040;2024-02-21T06:40:21;6.97;;;2.58;;
54557;SDS011;40452;50.080;20.040;2024-02-21T06:42:47;6.97;;;2.33;;
54557;SDS011;40452;50.080;20.040;2024-02-21T06:45:13;5.47;;;2.17;;
54557;SDS011;40452;50.080;20.040;2024-02-21T06:47:39;5.55;;;2.38;;
54557;SDS011;40452;50.080;20.040;2024-02-21T06:50:05;5.03;;;2.20;;
54557;SDS011;40452;50.080;20.040;2024-02-21T06:52:31;5.38;;;2.22;;
54557;SDS011;40452;50.080;20.040;2024-02-21T06:54:57;7.38;;;2.22;;
54557;SDS011;40452;50.080;20.040;2024-02-21T06:57:23;5.55;;;2.30;;
54557;SDS011;40452;50.080;20.040;2024-02-21T06:59:49;6.47;;;2.10;;
54557;SDS011;40452;50.080;20.040;2024-02-21T07:02:15;6.53;;;2.17;;
54557;SDS011;40452;50.080;20.040;2024-02-21T07:04:41;5.68;;;1.85;;
54557;SDS011;40452;50.080;20.040;2024-02-21T07:07:08;6.78;;;1.92;;
54557;SDS011;40452;50.080;20.040;2024-02-21T07:09:34;4.53;;;1.67;;
54557;SDS011;40452;50.080;20.040;2024-02-21T07:12:01;7.10;;;2.10;;
54557;SDS011;40452;50.080;20.040;2024-02-21T07:14:31;4.53;;;2.13;;
54557;SDS011;40452;50.080;20.040;2024-02-21T07:16:57;5.35;;;2.40;;
54557;SDS011;40452;50.080;20.040;2024-02-21T07:19:23;5.72;;;2.22;;
54557;SDS011;40452;50.080;20.040;2024-02-21T07:21:49;4.75;;;2.08;;
54557;SDS011;40452;50.080;20.040;2024-02-21T07:24:16;6.13;;;2.10;;
54557;SDS011;40452;50.080;20.040;2024-02-21T07:26:42;4.43;;;1.90;;
54557;SDS011;40452;50.080;20.040;2024-02-21T07:29:08;4.38;;;2.05;;
54557;SDS011;40452;50.080;20.040;2024-02-21T07:31:40;4.07;;;2.08;;
54557;SDS011;40452;50.080;20.040;2024-02-21T07:34:07;4.90;;;2.22;;
54557;SDS011;40452;50.080;20.040;2024-02-21T07:36:33;5.68;;;2.50;;
54557;SDS011;40452;50.080;20.040;2024-02-21T07:38:59;4.72;;;2.08;;
54557;SDS011;40452;50.080;20.040;2024-02-21T07:41:25;4.68;;;2.00;;
54557;SDS011;40452;50.080;20.040;2024-02-21T07:43:53;4.35;;;1.80;;
54557;SDS011;40452;50.080;20.040;2024-02-21T07:46:19;4.25;;;2.03;;
54557;SDS011;40452;50.080;20.040;2024-02-21T07:48:45;6.97;;;2.20;;
54557;SDS011;40452;50.080;20.040;2024-02-21T07:51:12;4.03;;;1.83;;
54557;SDS011;40452;50.080;20.040;2024-02-21T07:53:41;4.35;;;1.63;;
54557;SDS011;40452;50.080;20.040;2024-02-21T07:56:10;4.10;;;1.80;;
54557;SDS011;40452;50.080;20.040;2024-02-21T07:58:36;3.75;;;1.80;;
54557;SDS011;40452;50.080;20.040;2024-02-21T08:01:02;3.35;;;1.75;;
54557;SDS011;40452;50.080;20.040;2024-02-21T08:03:28;3.95;;;1.92;;
54557;SDS011;40452;50.080;20.040;2024-02-21T08:05:54;4.57;;;1.88;;
54557;SDS011;40452;50.080;20.040;2024-02-21T08:08:20;4.40;;;1.88;;
54557;SDS011;40452;50.080;20.040;2024-02-21T08:10:47;3.92;;;1.88;;
54557;SDS011;40452;50.080;20.040;2024-02-21T08:13:13;3.95;;;1.77;;
54557;SDS011;40452;50.080;20.040;2024-02-21T08:15:39;4.28;;;1.90;;
54557;SDS011;40452;50.080;20.040;2024-02-21T08:18:07;4.18;;;1.70;;
54557;SDS011;40452;50.080;20.040;2024-02-21T08:20:33;3.97;;;1.65;;
54557;SDS011;40452;50.080;20.040;2024-02-21T08:22:59;3.10;;;1.73;;
54557;SDS011;40452;50.080;20.040;2024-02-21T08:25:25;3.78;;;1.60;;
54557;SDS011;40452;50.080;20.040;2024-02-21T08:27:51;4.20;;;1.60;;
54557;SDS011;40452;50.080;20.040;2024-02-21T08:30:17;4.65;;;1.90;;
54557;SDS011;40452;50.080;20.040;2024-02-21T08:32:43;3.70;;;1.90;;
54557;SDS011;40452;50.080;20.040;2024-02-21T08:35:09;4.18;;;1.42;;
54557;SDS011;40452;50.080;20.040;2024-02-21T08:37:35;4.28;;;1.58;;
54557;SDS011;40452;50.080;20.040;2024-02-21T08:40:01;5.57;;;1.92;;
54557;SDS011;40452;50.080;20.040;2024-02-21T08:42:34;3.38;;;1.80;;
54557;SDS011;40452;50.080;20.040;2024-02-21T08:45:00;3.63;;;1.88;;
54557;SDS011;40452;50.080;20.040;2024-02-21T08:47:26;3.58;;;1.95;;
54557;SDS011;40452;50.080;20.040;2024-02-21T08:49:52;5.65;;;2.00;;
54557;SDS011;40452;50.080;20.040;2024-02-21T08:52:18;5.95;;;2.40;;
54557;SDS011;40452;50.080;20.040;2024-02-21T08:54:44;4.50;;;2.10;;
54557;SDS011;40452;50.080;20.040;2024-02-21T08:57:10;6.15;;;2.53;;
54557;SDS011;40452;50.080;20.040;2024-02-21T08:59:38;6.65;;;2.40;;
54557;SDS011;40452;50.080;20.040;2024-02-21T09:02:04;3.72;;;2.20;;
54557;SDS011;40452;50.080;20.040;2024-02-21T09:04:32;4.68;;;2.22;;
54557;SDS011;40452;50.080;20.040;2024-02-21T09:06:58;6.05;;;2.33;;
54557;SDS011;40452;50.080;20.040;2024-02-21T09:09:24;6.95;;;2.67;;
54557;SDS011;40452;50.080;20.040;2024-02-21T09:11:50;6.18;;;2.78;;
54557;SDS011;40452;50.080;20.040;2024-02-21T09:14:17;7.38;;;2.95;;
54557;SDS011;40452;50.080;20.040;2024-02-21T09:16:43;4.88;;;2.72;;
54557;SDS011;40452;50.080;20.040;2024-02-21T09:19:09;6.97;;;2.80;;
54557;SDS011;40452;50.080;20.040;2024-02-21T09:21:36;5.93;;;3.15;;
54557;SDS011;40452;50.080;20.040;2024-02-21T09:24:03;5.72;;;3.00;;
54557;SDS011;40452;50.080;20.040;2024-02-21T09:26:29;5.95;;;3.35;;
54557;SDS011;40452;50.080;20.040;2024-02-21T09:28:55;5.90;;;3.30;;
54557;SDS011;40452;50.080;20.040;2024-02-21T09:31:21;7.03;;;3.65;;
54557;SDS011;40452;50.080;20.040;2024-02-21T09:33:47;6.15;;;3.33;;
54557;SDS011;40452;50.080;20.040;2024-02-21T09:36:13;5.57;;;3.65;;
54557;SDS011;40452;50.080;20.040;2024-02-21T09:38:40;7.00;;;3.65;;
54557;SDS011;40452;50.080;20.040;2024-02-21T09:41:16;6.85;;;3.97;;
54557;SDS011;40452;50.080;20.040;2024-02-21T09:43:45;6.93;;;3.60;;
54557;SDS011;40452;50.080;20.040;2024-02-21T09:46:15;6.22;;;3.83;;
54557;SDS011;40452;50.080;20.040;2024-02-21T09:51:11;8.68;;;4.30;;
54557;SDS011;40452;50.080;20.040;2024-02-21T09:53:37;6.93;;;4.32;;
54557;SDS011;40452;50.080;20.040;2024-02-21T09:56:05;6.10;;;4.00;;
54557;SDS011;40452;50.080;20.040;2024-02-21T09:58:33;8.35;;;4.40;;
54557;SDS011;40452;50.080;20.040;2024-02-21T10:00:59;7.05;;;4.53;;
54557;SDS011;40452;50.080;20.040;2024-02-21T10:03:26;8.15;;;4.78;;
54557;SDS011;40452;50.080;20.040;2024-02-21T10:05:52;8.70;;;5.07;;
54557;SDS011;40452;50.080;20.040;2024-02-21T10:08:19;8.27;;;5.45;;
54557;SDS011;40452;50.080;20.040;2024-02-21T10:10:45;10.35;;;4.78;;
54557;SDS011;40452;50.080;20.040;2024-02-21T10:13:27;8.20;;;4.85;;
54557;SDS011;40452;50.080;20.040;2024-02-21T10:16:06;8.95;;;5.72;;
54557;SDS011;40452;50.080;20.040;2024-02-21T15:20:45;5.78;;;3.60;;
54557;SDS011;40452;50.080;20.040;2024-02-21T15:23:11;7.22;;;3.75;;
54557;SDS011;40452;50.080;20.040;2024-02-21T15:25:38;7.05;;;3.47;;
54557;SDS011;40452;50.080;20.040;2024-02-21T15:28:04;6.80;;;3.55;;
54557;SDS011;40452;50.080;20.040;2024-02-21T15:30:31;5.97;;;3.38;;
54557;SDS011;40452;50.080;20.040;2024-02-21T15:32:57;5.68;;;3.65;;
54557;SDS011;40452;50.080;20.040;2024-02-21T15:35:29;5.03;;;3.58;;
54557;SDS011;40452;50.080;20.040;2024-02-21T15:37:56;5.97;;;3.25;;
54557;SDS011;40452;50.080;20.040;2024-02-21T15:40:23;6.72;;;3.20;;
54557;SDS011;40452;50.080;20.040;2024-02-21T15:42:49;6.20;;;3.67;;
54557;SDS011;40452;50.080;20.040;2024-02-21T15:45:15;6.70;;;3.60;;
54557;SDS011;40452;50.080;20.040;2024-02-21T15:47:41;5.82;;;3.50;;
54557;SDS011;40452;50.080;20.040;2024-02-21T15:50:07;6.82;;;3.28;;
54557;SDS011;40452;50.080;20.040;2024-02-21T15:52:35;5.15;;;2.75;;
54557;SDS011;40452;50.080;20.040;2024-02-21T15:55:01;7.18;;;3.30;;
54557;SDS011;40452;50.080;20.040;2024-02-21T15:57:27;6.32;;;3.17;;
54557;SDS011;40452;50.080;20.040;2024-02-21T15:59:53;5.45;;;3.30;;
54557;SDS011;40452;50.080;20.040;2024-02-21T16:02:19;7.80;;;4.05;;
54557;SDS011;40452;50.080;20.040;2024-02-21T16:04:46;6.20;;;3.70;;
54557;SDS011;40452;50.080;20.040;2024-02-21T16:07:12;4.95;;;3.50;;
54557;SDS011;40452;50.080;20.040;2024-02-21T16:09:38;8.00;;;4.53;;
54557;SDS011;40452;50.080;20.040;2024-02-21T16:12:08;7.50;;;4.20;;
54557;SDS011;40452;50.080;20.040;2024-02-21T16:14:34;6.40;;;3.67;;
54557;SDS011;40452;50.080;20.040;2024-02-21T16:17:02;6.55;;;3.85;;
54557;SDS011;40452;50.080;20.040;2024-02-21T16:19:30;5.18;;;3.22;;
54557;SDS011;40452;50.080;20.040;2024-02-21T16:21:57;6.38;;;3.72;;
54557;SDS011;40452;50.080;20.040;2024-02-21T16:24:23;8.70;;;4.70;;
54557;SDS011;40452;50.080;20.040;2024-02-21T16:26:49;8.25;;;4.30;;
54557;SDS011;40452;50.080;20.040;2024-02-21T16:29:15;9.82;;;5.05;;
54557;SDS011;40452;50.080;20.040;2024-02-21T16:31:41;8.52;;;4.88;;
54557;SDS011;40452;50.080;20.040;2024-02-21T16:34:07;7.55;;;4.35;;
54557;SDS011;40452;50.080;20.040;2024-02-21T16:36:33;7.45;;;4.47;;
54557;SDS011;40452;50.080;20.040;2024-02-21T16:38:59;7.82;;;4.50;;
54557;SDS011;40452;50.080;20.040;2024-02-21T16:41:27;8.57;;;4.78;;
54557;SDS011;40452;50.080;20.040;2024-02-21T16:43:53;6.80;;;4.60;;
54557;SDS011;40452;50.080;20.040;2024-02-21T16:46:19;9.02;;;5.18;;
54557;SDS011;40452;50.080;20.040;2024-02-21T16:48:45;7.50;;;5.20;;
54557;SDS011;40452;50.080;20.040;2024-02-21T16:51:11;9.13;;;5.15;;
54557;SDS011;40452;50.080;20.040;2024-02-21T16:53:38;10.13;;;5.40;;
54557;SDS011;40452;50.080;20.040;2024-02-21T16:56:04;10.27;;;5.55;;
54557;SDS011;40452;50.080;20.040;2024-02-21T16:58:30;11.77;;;5.78;;
54557;SDS011;40452;50.080;20.040;2024-02-21T17:01:02;9.65;;;5.18;;
54557;SDS011;40452;50.080;20.040;2024-02-21T17:03:30;8.32;;;5.40;;
54557;SDS011;40452;50.080;20.040;2024-02-21T17:05:56;13.73;;;5.40;;
54557;SDS011;40452;50.080;20.040;2024-02-21T17:08:22;10.20;;;5.32;;
54557;SDS011;40452;50.080;20.040;2024-02-21T17:10:48;10.65;;;5.22;;
54557;SDS011;40452;50.080;20.040;2024-02-21T17:13:14;9.45;;;5.75;;
54557;SDS011;40452;50.080;20.040;2024-02-21T17:15:40;8.35;;;5.63;;
54557;SDS011;40452;50.080;20.040;2024-02-21T17:18:07;10.85;;;6.10;;
54557;SDS011;40452;50.080;20.040;2024-02-21T17:20:33;9.10;;;5.40;;
54557;SDS011;40452;50.080;20.040;2024-02-21T17:22:59;8.32;;;5.55;;
54557;SDS011;40452;50.080;20.040;2024-02-21T17:25:24;8.73;;;5.55;;
54557;SDS011;40452;50.080;20.040;2024-02-21T17:27:51;7.80;;;5.07;;
54557;SDS011;40452;50.080;20.040;2024-02-21T17:30:17;10.57;;;5.22;;
54557;SDS011;40452;50.080;20.040;2024-02-21T17:32:43;8.88;;;5.22;;
54557;SDS011;40452;50.080;20.040;2024-02-21T17:35:09;8.23;;;5.35;;
54557;SDS011;40452;50.080;20.040;2024-02-21T17:37:35;9.45;;;5.45;;
54557;SDS011;40452;50.080;20.040;2024-02-21T17:40:01;9.55;;;5.70;;
54557;SDS011;40452;50.080;20.040;2024-02-21T17:42:34;9.52;;;5.50;;
54557;SDS011;40452;50.080;20.040;2024-02-21T17:45:00;9.68;;;5.80;;
54557;SDS011;40452;50.080;20.040;2024-02-21T17:47:26;8.27;;;5.95;;
54557;SDS011;40452;50.080;20.040;2024-02-21T17:49:52;8.80;;;6.05;;
54557;SDS011;40452;50.080;20.040;2024-02-21T17:52:18;9.10;;;6.40;;
54557;SDS011;40452;50.080;20.040;2024-02-21T17:54:45;10.43;;;6.15;;
54557;SDS011;40452;50.080;20.040;2024-02-21T17:57:12;9.05;;;5.85;;
54557;SDS011;40452;50.080;20.040;2024-02-21T17:59:38;8.45;;;5.88;;
54557;SDS011;40452;50.080;20.040;2024-02-21T18:02:05;11.13;;;6.07;;
54557;SDS011;40452;50.080;20.040;2024-02-21T18:04:31;9.35;;;6.15;;
54557;SDS011;40452;50.080;20.040;2024-02-21T18:06:57;8.95;;;5.18;;
54557;SDS011;40452;50.080;20.040;2024-02-21T18:09:23;10.90;;;5.57;;
54557;SDS011;40452;50.080;20.040;2024-02-21T18:11:49;9.25;;;6.07;;
54557;SDS011;40452;50.080;20.040;2024-02-21T18:14:15;8.65;;;5.72;;
54557;SDS011;40452;50.080;20.040;2024-02-21T18:16:41;9.90;;;5.97;;
54557;SDS011;40452;50.080;20.040;2024-02-21T18:19:07;8.98;;;5.55;;
54557;SDS011;40452;50.080;20.040;2024-02-21T18:21:33;8.57;;;5.22;;
54557;SDS011;40452;50.080;20.040;2024-02-21T18:23:59;8.30;;;5.53;;
54557;SDS011;40452;50.080;20.040;2024-02-21T18:26:25;9.30;;;5.88;;
54557;SDS011;40452;50.080;20.040;2024-02-21T18:28:52;8.75;;;5.15;;
54557;SDS011;40452;50.080;20.040;2024-02-21T18:31:18;9.68;;;5.40;;
54557;SDS011;40452;50.080;20.040;2024-02-21T18:33:45;9.55;;;5.38;;
54557;SDS011;40452;50.080;20.040;2024-02-21T18:36:11;9.25;;;5.15;;
54557;SDS011;40452;50.080;20.040;2024-02-21T18:38:37;9.07;;;5.22;;
54557;SDS011;40452;50.080;20.040;2024-02-21T18:41:03;7.90;;;5.20;;
54557;SDS011;40452;50.080;20.040;2024-02-21T18:43:29;7.78;;;4.85;;
54557;SDS011;40452;50.080;20.040;2024-02-21T18:45:55;8.45;;;5.15;;
54557;SDS011;40452;50.080;20.040;2024-02-21T18:48:21;6.35;;;4.55;;
54557;SDS011;40452;50.080;20.040;2024-02-21T18:50:47;6.90;;;4.63;;
54557;SDS011;40452;50.080;20.040;2024-02-21T18:53:13;6.90;;;4.90;;
54557;SDS011;40452;50.080;20.040;2024-02-21T18:55:39;10.32;;;5.10;;
54557;SDS011;40452;50.080;20.040;2024-02-21T18:58:05;8.90;;;4.75;;
54557;SDS011;40452;50.080;20.040;2024-02-21T19:00:31;8.15;;;4.68;;
54557;SDS011;40452;50.080;20.040;2024-02-21T19:02:58;8.10;;;4.88;;
54557;SDS011;40452;50.080;20.040;2024-02-21T19:05:24;8.13;;;4.90;;
54557;SDS011;40452;50.080;20.040;2024-02-21T19:07:50;6.25;;;4.63;;
54557;SDS011;40452;50.080;20.040;2024-02-21T19:10:16;7.57;;;5.13;;
54557;SDS011;40452;50.080;20.040;2024-02-21T19:12:42;7.10;;;4.88;;
54557;SDS011;40452;50.080;20.040;2024-02-21T19:15:08;10.45;;;5.18;;
54557;SDS011;40452;50.080;20.040;2024-02-21T19:17:34;7.05;;;4.57;;
54557;SDS011;40452;50.080;20.040;2024-02-21T19:20:01;8.07;;;4.78;;
54557;SDS011;40452;50.080;20.040;2024-02-21T19:22:27;8.40;;;4.97;;
54557;SDS011;40452;50.080;20.040;2024-02-21T19:24:56;7.93;;;5.00;;
54557;SDS011;40452;50.080;20.040;2024-02-21T19:27:25;7.95;;;4.90;;
54557;SDS011;40452;50.080;20.040;2024-02-21T19:29:51;7.90;;;4.90;;
54557;SDS011;40452;50.080;20.040;2024-02-21T19:32:17;8.00;;;4.55;;
54557;SDS011;40452;50.080;20.040;2024-02-21T19:34:46;7.32;;;4.95;;
54557;SDS011;40452;50.080;20.040;2024-02-21T19:37:12;7.20;;;4.90;;
54557;SDS011;40452;50.080;20.040;2024-02-21T19:39:38;8.10;;;4.55;;
54557;SDS011;40452;50.080;20.040;2024-02-21T19:42:04;9.90;;;4.97;;
54557;SDS011;40452;50.080;20.040;2024-02-21T19:44:30;7.03;;;4.45;;
54557;SDS011;40452;50.080;20.040;2024-02-21T19:46:56;13.27;;;5.18;;
54557;SDS011;40452;50.080;20.040;2024-02-21T19:49:22;8.82;;;4.70;;
54557;SDS011;40452;50.080;20.040;2024-02-21T19:51:52;7.63;;;4.55;;
54557;SDS011;40452;50.080;20.040;2024-02-21T19:54:18;7.43;;;4.80;;
54557;SDS011;40452;50.080;20.040;2024-02-21T19:56:44;7.68;;;4.50;;
54557;SDS011;40452;50.080;20.040;2024-02-21T19:59:10;13.10;;;4.90;;
54557;SDS011;40452;50.080;20.040;2024-02-21T20:01:37;7.57;;;4.65;;
54557;SDS011;40452;50.080;20.040;2024-02-21T20:04:05;9.05;;;4.88;;
54557;SDS011;40452;50.080;20.040;2024-02-21T20:06:32;10.50;;;4.53;;
54557;SDS011;40452;50.080;20.040;2024-02-21T20:08:58;7.82;;;4.95;;
54557;SDS011;40452;50.080;20.040;2024-02-21T20:11:30;10.07;;;4.75;;
54557;SDS011;40452;50.080;20.040;2024-02-21T20:13:56;8.07;;;4.60;;
54557;SDS011;40452;50.080;20.040;2024-02-21T20:16:22;6.80;;;4.43;;
54557;SDS011;40452;50.080;20.040;2024-02-21T20:18:48;8.75;;;4.75;;
54557;SDS011;40452;50.080;20.040;2024-02-21T20:21:15;7.18;;;4.57;;
54557;SDS011;40452;50.080;20.040;2024-02-21T20:23:41;7.88;;;4.90;;
54557;SDS011;40452;50.080;20.040;2024-02-21T20:26:07;8.70;;;4.88;;
54557;SDS011;40452;50.080;20.040;2024-02-21T20:28:33;6.70;;;4.22;;
54557;SDS011;40452;50.080;20.040;2024-02-21T20:30:59;10.38;;;4.47;;
54557;SDS011;40452;50.080;20.040;2024-02-21T20:33:25;8.68;;;4.53;;
54557;SDS011;40452;50.080;20.040;2024-02-21T20:35:51;8.93;;;4.30;;
54557;SDS011;40452;50.080;20.040;2024-02-21T20:38:18;7.65;;;4.22;;
54557;SDS011;40452;50.080;20.040;2024-02-21T20:40:44;8.45;;;4.45;;
54557;SDS011;40452;50.080;20.040;2024-02-21T20:43:10;6.72;;;4.32;;
54557;SDS011;40452;50.080;20.040;2024-02-21T20:45:36;7.50;;;4.15;;
54557;SDS011;40452;50.080;20.040;2024-02-21T20:48:04;7.20;;;4.28;;
54557;SDS011;40452;50.080;20.040;2024-02-21T20:50:30;7.35;;;4.00;;
54557;SDS011;40452;50.080;20.040;2024-02-21T20:52:57;6.95;;;4.18;;
54557;SDS011;40452;50.080;20.040;2024-02-21T20:55:23;8.73;;;5.00;;
54557;SDS011;40452;50.080;20.040;2024-02-21T20:57:52;7.22;;;4.30;;
54557;SDS011;40452;50.080;20.040;2024-02-21T21:00:18;7.47;;;4.18;;
54557;SDS011;40452;50.080;20.040;2024-02-21T21:02:46;8.00;;;4.35;;
54557;SDS011;40452;50.080;20.040;2024-02-21T21:05:13;7.20;;;4.35;;
54557;SDS011;40452;50.080;20.040;2024-02-21T21:07:39;6.90;;;4.15;;
54557;SDS011;40452;50.080;20.040;2024-02-21T21:10:08;7.68;;;4.35;;
54557;SDS011;40452;50.080;20.040;2024-02-21T21:12:34;8.52;;;4.30;;
54557;SDS011;40452;50.080;20.040;2024-02-21T21:15:00;8.65;;;4.63;;
54557;SDS011;40452;50.080;20.040;2024-02-21T21:17:29;9.50;;;4.43;;
54557;SDS011;40452;50.080;20.040;2024-02-21T21:19:55;10.55;;;4.40;;
